createdAt,value
2019-04-30T00:00:38.179Z,9.04
2019-04-30T00:01:36.156Z,9.06
2019-04-30T00:02:39.731Z,9.12
2019-04-30T00:03:35.315Z,9.01
2019-04-30T00:04:40.147Z,8.96
2019-04-30T00:05:35.258Z,8.97
2019-04-30T00:06:39.205Z,8.99
2019-04-30T00:07:35.699Z,9.05
2019-04-30T00:08:35.441Z,9.04
2019-04-30T00:09:35.176Z,8.94
2019-04-30T00:10:37.027Z,9.04
2019-04-30T00:11:36.300Z,9.02
2019-04-30T00:12:38.039Z,8.99
2019-04-30T00:13:35.873Z,8.97
2019-04-30T00:14:39.941Z,8.91
2019-04-30T00:15:35.691Z,8.86
2019-04-30T00:16:36.324Z,8.87
2019-04-30T00:17:35.883Z,8.90
2019-04-30T00:18:37.938Z,8.79
2019-04-30T00:19:35.901Z,8.75
2019-04-30T00:20:38.464Z,8.73
2019-04-30T00:21:36.099Z,8.79
2019-04-30T00:22:39.328Z,8.83
2019-04-30T00:23:35.985Z,8.75
2019-04-30T00:24:35.478Z,8.75
2019-04-30T00:25:35.190Z,8.75
2019-04-30T00:26:35.437Z,8.73
2019-04-30T00:27:35.632Z,8.69
2019-04-30T00:28:35.367Z,8.73
2019-04-30T00:29:35.571Z,8.68
2019-04-30T00:30:35.074Z,8.69
2019-04-30T00:31:34.972Z,8.62
2019-04-30T00:32:39.336Z,8.60
2019-04-30T00:33:35.381Z,8.63
2019-04-30T00:34:36.035Z,8.58
2019-04-30T00:35:35.524Z,8.51
2019-04-30T00:36:37.320Z,8.39
2019-04-30T00:37:35.262Z,8.39
2019-04-30T00:38:37.814Z,8.30
2019-04-30T00:39:35.518Z,8.32
2019-04-30T00:40:35.191Z,8.25
2019-04-30T00:41:35.354Z,8.14
2019-04-30T00:42:35.776Z,8.04
2019-04-30T00:43:35.343Z,8.07
2019-04-30T00:44:35.635Z,8.00
2019-04-30T00:45:35.377Z,8.02
2019-04-30T00:46:36.403Z,8.02
2019-04-30T00:47:35.163Z,7.96
2019-04-30T00:48:35.668Z,7.87
2019-04-30T00:49:35.044Z,7.89
2019-04-30T00:50:37.240Z,7.77
2019-04-30T00:51:35.479Z,7.62
2019-04-30T00:52:37.243Z,7.62
2019-04-30T00:53:35.922Z,7.49
2019-04-30T00:54:35.179Z,7.45
2019-04-30T00:55:40.221Z,7.42
2019-04-30T00:56:35.521Z,7.31
2019-04-30T00:57:37.269Z,7.29
2019-04-30T00:58:35.659Z,7.20
2019-04-30T00:59:35.040Z,7.17
2019-04-30T01:00:35.221Z,7.08
2019-04-30T01:01:39.234Z,7.08
2019-04-30T01:02:35.776Z,7.02
2019-04-30T01:03:35.210Z,7.04
2019-04-30T01:04:34.948Z,6.89
2019-04-30T01:05:35.375Z,6.84
2019-04-30T01:06:34.985Z,6.87
2019-04-30T01:07:35.444Z,6.76
2019-04-30T01:08:35.836Z,6.83
2019-04-30T01:09:35.407Z,6.71
2019-04-30T01:10:34.805Z,6.71
2019-04-30T01:11:35.543Z,6.63
2019-04-30T01:12:39.102Z,6.51
2019-04-30T01:13:34.318Z,6.59
2019-04-30T01:14:34.320Z,6.51
2019-04-30T01:15:34.312Z,6.59
2019-04-30T01:16:34.358Z,6.61
2019-04-30T01:17:34.302Z,6.58
2019-04-30T01:18:34.305Z,6.50
2019-04-30T01:19:34.300Z,6.41
2019-04-30T01:20:34.293Z,6.33
2019-04-30T01:21:34.316Z,6.40
2019-04-30T01:22:34.285Z,6.38
2019-04-30T01:23:34.278Z,6.36
2019-04-30T01:24:34.281Z,6.28
2019-04-30T01:25:34.310Z,6.36
2019-04-30T01:26:34.275Z,6.41
2019-04-30T01:27:34.269Z,6.40
2019-04-30T01:28:34.285Z,6.50
2019-04-30T01:29:41.454Z,6.54
2019-04-30T01:30:34.285Z,6.56
2019-04-30T01:31:37.565Z,6.66
2019-04-30T01:32:34.246Z,6.65
2019-04-30T01:33:35.632Z,6.62
2019-04-30T01:34:34.243Z,6.54
2019-04-30T01:35:34.265Z,6.62
2019-04-30T01:36:34.231Z,6.61
2019-04-30T01:37:34.229Z,6.62
2019-04-30T01:38:34.226Z,6.62
2019-04-30T01:39:34.225Z,6.61
2019-04-30T01:40:34.245Z,6.61
2019-04-30T01:41:34.214Z,6.59
2019-04-30T01:42:34.212Z,6.63
2019-04-30T01:43:34.722Z,6.62
2019-04-30T01:44:34.204Z,6.59
2019-04-30T01:45:34.229Z,6.62
2019-04-30T01:46:34.194Z,6.63
2019-04-30T01:47:34.198Z,6.69
2019-04-30T01:48:34.187Z,6.72
2019-04-30T01:49:41.948Z,6.81
2019-04-30T01:50:38.734Z,6.84
2019-04-30T01:51:34.180Z,6.81
2019-04-30T01:52:35.211Z,6.72
2019-04-30T01:53:34.167Z,6.66
2019-04-30T01:54:34.168Z,6.66
2019-04-30T01:55:34.188Z,6.68
2019-04-30T01:56:34.183Z,6.66
2019-04-30T01:57:34.154Z,6.63
2019-04-30T01:58:34.147Z,6.56
2019-04-30T01:59:34.157Z,6.40
2019-04-30T02:00:34.148Z,6.30
2019-04-30T02:01:34.163Z,6.26
2019-04-30T02:02:34.132Z,6.10
2019-04-30T02:03:34.135Z,6.04
2019-04-30T02:04:34.129Z,6.10
2019-04-30T02:05:34.123Z,5.93
2019-04-30T02:06:34.162Z,5.98
2019-04-30T02:07:34.123Z,5.81
2019-04-30T02:08:34.118Z,5.78
2019-04-30T02:09:34.115Z,5.68
2019-04-30T02:10:34.111Z,5.60
2019-04-30T02:11:34.127Z,5.56
2019-04-30T02:12:34.099Z,5.66
2019-04-30T02:13:34.502Z,5.63
2019-04-30T02:14:34.091Z,5.64
2019-04-30T02:15:34.088Z,5.60
2019-04-30T02:16:34.109Z,5.56
2019-04-30T02:17:34.075Z,5.52
2019-04-30T02:18:34.077Z,5.43
2019-04-30T02:19:34.065Z,5.46
2019-04-30T02:20:34.091Z,5.35
2019-04-30T02:21:34.059Z,5.37
2019-04-30T02:22:34.057Z,5.25
2019-04-30T02:23:34.059Z,5.40
2019-04-30T02:24:34.047Z,5.28
2019-04-30T02:25:34.072Z,5.30
2019-04-30T02:26:34.039Z,5.12
2019-04-30T02:27:34.036Z,5.14
2019-04-30T02:28:34.032Z,5.13
2019-04-30T02:29:34.027Z,5.04
2019-04-30T02:30:34.054Z,4.99
2019-04-30T02:31:34.022Z,4.98
2019-04-30T02:32:34.017Z,4.92
2019-04-30T02:33:34.010Z,4.88
2019-04-30T02:34:34.008Z,4.91
2019-04-30T02:35:34.026Z,4.83
2019-04-30T02:36:34.004Z,4.73
2019-04-30T02:37:33.993Z,4.57
2019-04-30T02:38:33.990Z,4.42
2019-04-30T02:39:33.989Z,4.42
2019-04-30T02:40:34.019Z,4.50
2019-04-30T02:41:34.004Z,4.37
2019-04-30T02:42:33.974Z,4.46
2019-04-30T02:43:33.965Z,4.52
2019-04-30T02:44:33.959Z,4.55
2019-04-30T02:45:33.959Z,4.62
2019-04-30T02:46:33.978Z,4.55
2019-04-30T02:47:33.946Z,4.57
2019-04-30T02:48:33.941Z,4.50
2019-04-30T02:49:33.941Z,4.52
2019-04-30T02:50:33.934Z,4.54
2019-04-30T02:51:33.975Z,4.62
2019-04-30T02:52:33.928Z,4.58
2019-04-30T02:53:33.922Z,4.51
2019-04-30T02:54:33.914Z,4.54
2019-04-30T02:55:33.907Z,4.46
2019-04-30T02:56:33.933Z,4.46
2019-04-30T02:57:33.902Z,4.37
2019-04-30T02:58:33.895Z,4.43
2019-04-30T02:59:33.895Z,4.50
2019-04-30T03:00:33.885Z,4.43
2019-04-30T03:01:33.908Z,4.37
2019-04-30T03:02:33.882Z,4.29
2019-04-30T03:03:33.872Z,4.26
2019-04-30T03:04:33.881Z,4.26
2019-04-30T03:05:33.867Z,4.22
2019-04-30T03:06:33.886Z,4.19
2019-04-30T03:07:33.847Z,4.21
2019-04-30T03:08:33.850Z,4.16
2019-04-30T03:09:33.843Z,4.12
2019-04-30T03:10:33.839Z,4.12
2019-04-30T03:11:33.880Z,4.10
2019-04-30T03:12:34.110Z,4.19
2019-04-30T03:13:34.193Z,4.28
2019-04-30T03:14:33.824Z,4.37
2019-04-30T03:15:33.807Z,4.36
2019-04-30T03:16:33.804Z,4.33
2019-04-30T03:17:33.829Z,4.36
2019-04-30T03:18:33.799Z,4.26
2019-04-30T03:19:33.794Z,4.19
2019-04-30T03:20:36.338Z,4.19
2019-04-30T03:21:33.819Z,4.18
2019-04-30T03:22:33.778Z,4.10
2019-04-30T03:23:33.770Z,4.03
2019-04-30T03:24:33.781Z,4.01
2019-04-30T03:25:33.762Z,4.08
2019-04-30T03:26:33.790Z,4.07
2019-04-30T03:27:33.753Z,3.88
2019-04-30T03:28:33.750Z,3.86
2019-04-30T03:29:33.775Z,3.92
2019-04-30T03:30:33.752Z,3.80
2019-04-30T03:31:33.744Z,3.89
2019-04-30T03:32:36.788Z,3.90
2019-04-30T03:33:33.734Z,3.92
2019-04-30T03:34:33.721Z,3.90
2019-04-30T03:35:33.712Z,3.78
2019-04-30T03:36:33.767Z,3.71
2019-04-30T03:37:33.698Z,3.70
2019-04-30T03:38:33.696Z,3.76
2019-04-30T03:39:34.298Z,3.78
2019-04-30T03:40:33.695Z,3.54
2019-04-30T03:41:33.680Z,3.62
2019-04-30T03:42:33.704Z,3.54
2019-04-30T03:43:33.685Z,3.68
2019-04-30T03:44:33.670Z,3.67
2019-04-30T03:45:33.660Z,3.60
2019-04-30T03:46:33.656Z,3.52
2019-04-30T03:47:33.684Z,3.57
2019-04-30T03:48:33.650Z,3.53
2019-04-30T03:49:33.639Z,3.47
2019-04-30T03:50:49.210Z,3.42
2019-04-30T03:51:33.629Z,3.49
2019-04-30T03:52:33.656Z,3.50
2019-04-30T03:53:33.617Z,3.50
2019-04-30T03:54:33.611Z,3.49
2019-04-30T03:55:33.608Z,3.44
2019-04-30T03:56:33.603Z,3.44
2019-04-30T03:57:33.632Z,3.43
2019-04-30T03:58:33.599Z,3.44
2019-04-30T03:59:33.593Z,3.44
2019-04-30T04:00:33.598Z,3.57
2019-04-30T04:01:33.577Z,3.67
2019-04-30T04:02:33.597Z,3.64
2019-04-30T04:03:33.566Z,3.68
2019-04-30T04:04:33.561Z,3.78
2019-04-30T04:05:33.565Z,3.76
2019-04-30T04:06:33.578Z,3.71
2019-04-30T04:07:33.541Z,3.68
2019-04-30T04:08:33.540Z,3.71
2019-04-30T04:09:33.533Z,3.65
2019-04-30T04:10:33.527Z,3.80
2019-04-30T04:11:33.569Z,3.79
2019-04-30T04:12:33.520Z,3.76
2019-04-30T04:13:33.518Z,3.71
2019-04-30T04:14:33.509Z,3.71
2019-04-30T04:15:33.532Z,3.70
2019-04-30T04:16:33.506Z,3.71
2019-04-30T04:17:33.522Z,3.79
2019-04-30T04:18:33.488Z,3.88
2019-04-30T04:19:33.485Z,3.96
2019-04-30T04:20:33.473Z,3.94
2019-04-30T04:21:33.468Z,3.98
2019-04-30T04:22:33.489Z,4.04
2019-04-30T04:23:33.471Z,4.19
2019-04-30T04:24:33.458Z,4.06
2019-04-30T04:25:33.451Z,4.00
2019-04-30T04:26:33.442Z,4.03
2019-04-30T04:27:33.478Z,3.94
2019-04-30T04:28:33.435Z,3.97
2019-04-30T04:29:33.431Z,3.94
2019-04-30T04:30:33.451Z,3.88
2019-04-30T04:31:33.419Z,3.96
2019-04-30T04:32:33.414Z,4.06
2019-04-30T04:33:33.432Z,4.15
2019-04-30T04:34:33.402Z,4.24
2019-04-30T04:35:33.398Z,4.43
2019-04-30T04:36:33.389Z,4.54
2019-04-30T04:37:33.426Z,4.37
2019-04-30T04:38:33.384Z,4.42
2019-04-30T04:39:33.415Z,4.36
2019-04-30T04:40:33.371Z,4.46
2019-04-30T04:41:33.368Z,4.50
2019-04-30T04:42:33.365Z,4.57
2019-04-30T04:43:33.387Z,4.70
2019-04-30T04:44:33.355Z,4.70
2019-04-30T04:45:33.354Z,4.75
2019-04-30T04:46:33.343Z,4.69
2019-04-30T04:47:33.355Z,4.80
2019-04-30T04:48:33.336Z,4.69
2019-04-30T04:49:33.326Z,4.72
2019-04-30T04:50:33.324Z,4.67
2019-04-30T04:51:38.441Z,4.61
2019-04-30T04:52:33.355Z,4.67
2019-04-30T04:53:33.312Z,4.84
2019-04-30T04:54:33.328Z,5.07
2019-04-30T04:55:33.299Z,5.28
2019-04-30T04:56:33.309Z,5.60
2019-04-30T04:57:33.293Z,5.78
2019-04-30T04:58:33.324Z,6.03
2019-04-30T04:59:33.287Z,6.13
2019-04-30T05:00:33.300Z,6.40
2019-04-30T05:01:33.276Z,6.30
2019-04-30T05:02:33.271Z,6.38
2019-04-30T05:03:33.264Z,6.16
2019-04-30T05:04:33.311Z,6.62
2019-04-30T05:05:33.252Z,6.84
2019-04-30T05:06:33.255Z,7.12
2019-04-30T05:07:33.247Z,7.05
2019-04-30T05:08:33.243Z,7.42
2019-04-30T05:09:33.263Z,7.90
2019-04-30T05:10:33.233Z,8.15
2019-04-30T05:11:33.227Z,8.54
2019-04-30T05:12:33.224Z,8.76
2019-04-30T05:13:34.694Z,9.15
2019-04-30T05:14:33.251Z,9.31
2019-04-30T05:15:33.212Z,9.45
2019-04-30T05:16:33.220Z,9.63
2019-04-30T05:17:33.200Z,9.88
2019-04-30T05:18:33.204Z,10.00
2019-04-30T05:19:33.222Z,10.06
2019-04-30T05:20:33.195Z,10.19
2019-04-30T05:21:42.025Z,10.12
2019-04-30T05:22:33.185Z,10.18
2019-04-30T05:23:33.182Z,10.39
2019-04-30T05:24:33.217Z,10.53
2019-04-30T05:25:33.177Z,10.63
2019-04-30T05:26:33.178Z,10.83
2019-04-30T05:27:33.174Z,10.83
2019-04-30T05:28:33.168Z,10.96
2019-04-30T05:29:33.192Z,11.25
2019-04-30T05:30:33.164Z,11.25
2019-04-30T05:31:33.160Z,11.17
2019-04-30T05:32:33.160Z,11.19
2019-04-30T05:33:33.167Z,11.35
2019-04-30T05:34:33.188Z,11.47
2019-04-30T05:35:33.148Z,11.56
2019-04-30T05:36:33.153Z,11.70
2019-04-30T05:37:33.146Z,11.72
2019-04-30T05:38:33.141Z,11.71
2019-04-30T05:39:33.168Z,11.71
2019-04-30T05:40:33.165Z,11.82
2019-04-30T05:41:33.138Z,11.43
2019-04-30T05:42:33.134Z,11.25
2019-04-30T05:43:33.134Z,11.36
2019-04-30T05:44:33.125Z,11.47
2019-04-30T05:45:33.778Z,11.46
2019-04-30T05:46:33.127Z,11.52
2019-04-30T05:47:33.125Z,11.59
2019-04-30T05:48:33.121Z,11.64
2019-04-30T05:49:33.117Z,11.47
2019-04-30T05:50:33.151Z,11.52
2019-04-30T05:51:33.118Z,11.74
2019-04-30T05:52:33.115Z,11.75
2019-04-30T05:53:33.109Z,11.83
2019-04-30T05:54:33.115Z,11.53
2019-04-30T05:55:33.134Z,11.35
2019-04-30T05:56:33.106Z,11.65
2019-04-30T05:57:33.101Z,11.61
2019-04-30T05:58:33.102Z,11.46
2019-04-30T05:59:33.102Z,11.56
2019-04-30T06:00:33.125Z,11.78
2019-04-30T06:01:33.093Z,11.86
2019-04-30T06:02:34.094Z,11.83
2019-04-30T06:03:33.435Z,11.83
2019-04-30T06:04:33.093Z,11.56
2019-04-30T06:05:33.117Z,11.52
2019-04-30T06:06:33.700Z,11.14
2019-04-30T06:07:33.085Z,11.57
2019-04-30T06:08:33.086Z,11.77
2019-04-30T06:09:34.076Z,11.86
2019-04-30T06:10:33.112Z,11.90
2019-04-30T06:11:33.086Z,11.85
2019-04-30T06:12:33.085Z,12.06
2019-04-30T06:13:33.076Z,12.44
2019-04-30T06:14:33.079Z,12.54
2019-04-30T06:15:33.121Z,12.45
2019-04-30T06:16:33.074Z,12.54
2019-04-30T06:17:33.098Z,12.45
2019-04-30T06:18:33.070Z,12.45
2019-04-30T06:19:33.070Z,12.41
2019-04-30T06:20:33.076Z,12.20
2019-04-30T06:21:33.099Z,12.02
2019-04-30T06:22:33.069Z,11.86
2019-04-30T06:23:33.062Z,11.97
2019-04-30T06:24:33.065Z,12.09
2019-04-30T06:25:45.858Z,12.24
2019-04-30T06:26:33.090Z,12.57
2019-04-30T06:27:33.085Z,12.67
2019-04-30T06:28:33.065Z,12.60
2019-04-30T06:29:33.058Z,12.51
2019-04-30T06:30:33.065Z,12.39
2019-04-30T06:31:37.366Z,12.39
2019-04-30T06:32:33.084Z,11.90
2019-04-30T06:33:33.058Z,12.45
2019-04-30T06:34:33.055Z,12.46
2019-04-30T06:35:33.058Z,12.60
2019-04-30T06:36:33.058Z,12.79
2019-04-30T06:37:33.083Z,13.07
2019-04-30T06:38:33.054Z,13.20
2019-04-30T06:39:33.055Z,13.36
2019-04-30T06:40:33.054Z,13.65
2019-04-30T06:41:33.055Z,13.74
2019-04-30T06:42:33.083Z,13.62
2019-04-30T06:43:33.054Z,13.94
2019-04-30T06:44:37.321Z,14.10
2019-04-30T06:45:33.052Z,14.06
2019-04-30T06:46:33.053Z,14.07
2019-04-30T06:47:33.536Z,13.92
2019-04-30T06:48:33.058Z,14.04
2019-04-30T06:49:33.059Z,14.21
2019-04-30T06:50:33.063Z,14.38
2019-04-30T06:51:33.059Z,14.49
2019-04-30T06:52:33.091Z,14.54
2019-04-30T06:53:33.058Z,14.53
2019-04-30T06:54:33.063Z,14.46
2019-04-30T06:55:33.064Z,14.69
2019-04-30T06:56:33.065Z,14.72
2019-04-30T06:57:33.091Z,14.83
2019-04-30T06:58:33.069Z,14.69
2019-04-30T06:59:33.063Z,14.62
2019-04-30T07:00:35.520Z,14.65
2019-04-30T07:01:33.071Z,14.78
2019-04-30T07:02:33.100Z,14.68
2019-04-30T07:03:33.109Z,14.53
2019-04-30T07:04:33.083Z,14.37
2019-04-30T07:05:33.077Z,14.64
2019-04-30T07:06:37.034Z,14.53
2019-04-30T07:07:39.021Z,14.46
2019-04-30T07:08:39.614Z,14.65
2019-04-30T07:09:39.827Z,14.38
2019-04-30T07:10:33.084Z,13.52
2019-04-30T07:11:33.095Z,13.03
2019-04-30T07:12:34.174Z,13.15
2019-04-30T07:13:33.129Z,13.33
2019-04-30T07:14:33.097Z,13.29
2019-04-30T07:15:33.097Z,13.54
2019-04-30T07:16:33.099Z,13.43
2019-04-30T07:17:33.099Z,13.74
2019-04-30T07:18:33.131Z,13.95
2019-04-30T07:19:50.089Z,13.77
2019-04-30T07:20:34.116Z,13.21
2019-04-30T07:21:36.474Z,13.49
2019-04-30T07:22:39.981Z,13.58
2019-04-30T07:23:33.136Z,13.94
2019-04-30T07:24:33.147Z,14.07
2019-04-30T07:25:33.113Z,14.06
2019-04-30T07:26:33.116Z,13.89
2019-04-30T07:27:33.119Z,13.83
2019-04-30T07:28:46.569Z,14.04
2019-04-30T07:29:33.120Z,14.35
2019-04-30T07:30:33.121Z,14.47
2019-04-30T07:31:33.124Z,14.25
2019-04-30T07:32:33.128Z,13.96
2019-04-30T07:33:33.128Z,13.49
2019-04-30T07:34:37.020Z,13.67
2019-04-30T07:35:33.132Z,13.99
2019-04-30T07:36:45.291Z,14.10
2019-04-30T07:37:33.164Z,14.27
2019-04-30T07:38:35.845Z,14.24
2019-04-30T07:39:33.505Z,14.25
2019-04-30T07:40:33.143Z,14.37
2019-04-30T07:41:33.145Z,14.13
2019-04-30T07:42:38.041Z,14.29
2019-04-30T07:43:33.149Z,14.47
2019-04-30T07:44:36.376Z,14.46
2019-04-30T07:45:33.153Z,14.49
2019-04-30T07:46:35.267Z,14.35
2019-04-30T07:47:33.163Z,14.62
2019-04-30T07:48:33.160Z,14.80
2019-04-30T07:49:46.882Z,15.01
2019-04-30T07:50:33.664Z,15.03
2019-04-30T07:51:37.736Z,15.05
2019-04-30T07:52:34.393Z,15.28
2019-04-30T07:53:33.178Z,14.80
2019-04-30T07:54:33.209Z,14.86
2019-04-30T07:55:33.181Z,15.05
2019-04-30T07:56:37.675Z,15.20
2019-04-30T07:57:33.232Z,15.41
2019-04-30T07:58:33.187Z,15.42
2019-04-30T07:59:33.219Z,15.46
2019-04-30T08:00:33.198Z,15.60
2019-04-30T08:01:33.206Z,15.49
2019-04-30T08:02:37.964Z,15.70
2019-04-30T08:03:33.368Z,15.61
2019-04-30T08:04:33.242Z,15.49
2019-04-30T08:05:33.223Z,15.46
2019-04-30T08:06:33.291Z,15.66
2019-04-30T08:07:33.271Z,15.63
2019-04-30T08:08:33.274Z,15.72
2019-04-30T08:09:39.697Z,15.51
2019-04-30T08:10:33.891Z,15.46
2019-04-30T08:11:34.521Z,15.17
2019-04-30T08:12:36.756Z,15.28
2019-04-30T08:13:33.835Z,15.35
2019-04-30T08:14:33.290Z,15.63
2019-04-30T08:15:33.286Z,15.70
2019-04-30T08:16:33.268Z,15.70
2019-04-30T08:17:33.270Z,15.86
2019-04-30T08:18:33.276Z,16.16
2019-04-30T08:19:33.273Z,16.20
2019-04-30T08:20:33.306Z,16.33
2019-04-30T08:21:33.305Z,15.96
2019-04-30T08:22:33.290Z,15.97
2019-04-30T08:23:37.001Z,16.12
2019-04-30T08:24:33.310Z,15.84
2019-04-30T08:25:33.358Z,16.09
2019-04-30T08:26:33.317Z,16.20
2019-04-30T08:27:33.324Z,16.22
2019-04-30T08:28:33.327Z,15.94
2019-04-30T08:29:33.359Z,16.25
2019-04-30T08:30:33.423Z,16.55
2019-04-30T08:31:33.349Z,16.71
2019-04-30T08:32:33.352Z,16.83
2019-04-30T08:33:33.359Z,16.86
2019-04-30T08:34:33.395Z,16.56
2019-04-30T08:35:33.396Z,16.07
2019-04-30T08:36:33.379Z,16.27
2019-04-30T08:37:33.383Z,15.99
2019-04-30T08:38:33.394Z,16.25
2019-04-30T08:39:33.396Z,16.27
2019-04-30T08:40:33.431Z,16.44
2019-04-30T08:41:33.413Z,16.70
2019-04-30T08:42:34.604Z,16.59
2019-04-30T08:43:33.423Z,16.45
2019-04-30T08:44:33.431Z,16.89
2019-04-30T08:45:34.876Z,17.29
2019-04-30T08:46:33.447Z,17.29
2019-04-30T08:47:33.451Z,17.47
2019-04-30T08:48:49.913Z,17.30
2019-04-30T08:49:33.735Z,17.29
2019-04-30T08:50:33.534Z,17.38
2019-04-30T08:51:33.683Z,17.32
2019-04-30T08:52:33.509Z,17.51
2019-04-30T08:53:34.050Z,17.69
2019-04-30T08:54:34.704Z,17.64
2019-04-30T08:55:33.561Z,17.36
2019-04-30T08:56:33.524Z,16.70
2019-04-30T08:57:33.531Z,16.85
2019-04-30T08:58:33.540Z,17.03
2019-04-30T08:59:33.553Z,17.03
2019-04-30T09:00:33.584Z,17.44
2019-04-30T09:01:33.566Z,17.30
2019-04-30T09:02:33.580Z,17.70
2019-04-30T09:03:33.585Z,18.07
2019-04-30T09:04:33.592Z,17.88
2019-04-30T09:05:33.628Z,18.06
2019-04-30T09:06:33.652Z,17.87
2019-04-30T09:07:33.620Z,17.84
2019-04-30T09:08:33.629Z,18.10
2019-04-30T09:09:33.636Z,18.04
2019-04-30T09:10:33.678Z,17.74
2019-04-30T09:11:43.002Z,18.10
2019-04-30T09:12:33.669Z,18.34
2019-04-30T09:13:33.676Z,17.82
2019-04-30T09:14:33.685Z,17.74
2019-04-30T09:15:33.725Z,17.62
2019-04-30T09:16:33.768Z,17.62
2019-04-30T09:17:33.719Z,17.66
2019-04-30T09:18:33.725Z,17.57
2019-04-30T09:19:33.743Z,17.67
2019-04-30T09:20:33.772Z,17.81
2019-04-30T09:21:33.782Z,17.71
2019-04-30T09:22:33.768Z,17.30
2019-04-30T09:23:43.961Z,17.15
2019-04-30T09:24:33.789Z,17.63
2019-04-30T09:25:33.825Z,17.82
2019-04-30T09:26:33.833Z,18.04
2019-04-30T09:27:33.832Z,17.85
2019-04-30T09:28:33.829Z,18.07
2019-04-30T09:29:33.838Z,18.33
2019-04-30T09:30:33.882Z,18.24
2019-04-30T09:31:33.906Z,18.44
2019-04-30T09:32:33.869Z,18.39
2019-04-30T09:33:33.879Z,18.57
2019-04-30T09:34:33.892Z,18.44
2019-04-30T09:35:33.936Z,18.49
2019-04-30T09:36:33.919Z,18.55
2019-04-30T09:37:33.923Z,18.65
2019-04-30T09:38:33.936Z,18.67
2019-04-30T09:39:33.949Z,18.73
2019-04-30T09:40:33.986Z,18.49
2019-04-30T09:41:33.969Z,18.31
2019-04-30T09:42:33.984Z,18.64
2019-04-30T09:43:33.990Z,18.57
2019-04-30T09:44:34.001Z,18.52
2019-04-30T09:45:34.042Z,18.80
2019-04-30T09:46:34.026Z,18.98
2019-04-30T09:47:34.066Z,19.08
2019-04-30T09:48:34.054Z,19.02
2019-04-30T09:49:34.065Z,18.59
2019-04-30T09:50:34.732Z,18.86
2019-04-30T09:51:34.269Z,18.55
2019-04-30T09:52:36.124Z,18.28
2019-04-30T09:53:34.142Z,18.33
2019-04-30T09:54:34.114Z,18.44
2019-04-30T09:55:34.166Z,18.58
2019-04-30T09:56:34.151Z,18.62
2019-04-30T09:57:34.159Z,18.76
2019-04-30T09:58:34.168Z,18.62
2019-04-30T09:59:34.182Z,18.73
2019-04-30T10:00:34.225Z,18.76
2019-04-30T10:01:34.211Z,18.52
2019-04-30T10:02:34.215Z,18.50
2019-04-30T10:03:34.968Z,18.64
2019-04-30T10:04:34.377Z,18.79
2019-04-30T10:05:34.284Z,18.65
2019-04-30T10:06:39.502Z,18.61
2019-04-30T10:07:34.275Z,18.98
2019-04-30T10:08:46.102Z,18.82
2019-04-30T10:09:34.309Z,18.82
2019-04-30T10:10:34.424Z,18.70
2019-04-30T10:11:34.331Z,18.73
2019-04-30T10:12:34.344Z,18.36
2019-04-30T10:13:34.350Z,18.49
2019-04-30T10:14:34.370Z,18.54
2019-04-30T10:15:34.410Z,18.55
2019-04-30T10:16:34.391Z,18.77
2019-04-30T10:17:34.402Z,19.18
2019-04-30T10:18:34.421Z,19.43
2019-04-30T10:19:34.429Z,19.72
2019-04-30T10:20:34.470Z,19.86
2019-04-30T10:21:34.452Z,19.55
2019-04-30T10:22:34.464Z,19.51
2019-04-30T10:23:34.479Z,19.32
2019-04-30T10:24:34.492Z,19.33
2019-04-30T10:25:34.533Z,19.31
2019-04-30T10:26:34.516Z,19.31
2019-04-30T10:27:34.528Z,19.53
2019-04-30T10:28:34.574Z,19.97
2019-04-30T10:29:34.556Z,18.72
2019-04-30T10:30:34.657Z,17.41
2019-04-30T10:31:34.609Z,17.70
2019-04-30T10:32:34.597Z,18.42
2019-04-30T10:33:34.609Z,18.92
2019-04-30T10:34:34.626Z,19.31
2019-04-30T10:35:34.661Z,19.61
2019-04-30T10:36:34.675Z,19.86
2019-04-30T10:37:34.662Z,19.87
2019-04-30T10:38:34.678Z,20.06
2019-04-30T10:39:34.693Z,19.91
2019-04-30T10:40:34.729Z,20.09
2019-04-30T10:41:34.742Z,19.79
2019-04-30T10:42:34.956Z,19.80
2019-04-30T10:43:34.742Z,19.79
2019-04-30T10:44:34.754Z,19.84
2019-04-30T10:45:34.793Z,19.63
2019-04-30T10:46:34.805Z,19.25
2019-04-30T10:47:34.797Z,19.61
2019-04-30T10:48:34.807Z,19.70
2019-04-30T10:49:34.831Z,19.87
2019-04-30T10:50:34.886Z,20.20
2019-04-30T10:51:34.874Z,20.34
2019-04-30T10:52:34.866Z,20.72
2019-04-30T10:53:34.875Z,20.77
2019-04-30T10:54:34.887Z,20.68
2019-04-30T10:55:34.932Z,19.75
2019-04-30T10:56:34.942Z,19.51
2019-04-30T10:57:34.931Z,19.13
2019-04-30T10:58:34.938Z,19.55
2019-04-30T10:59:34.955Z,19.54
2019-04-30T11:00:34.997Z,19.94
2019-04-30T11:01:35.008Z,20.05
2019-04-30T11:02:35.000Z,20.13
2019-04-30T11:03:35.017Z,20.05
2019-04-30T11:04:35.029Z,20.20
2019-04-30T11:05:35.082Z,19.53
2019-04-30T11:06:35.083Z,19.36
2019-04-30T11:07:35.072Z,19.53
2019-04-30T11:08:35.081Z,19.36
2019-04-30T11:09:35.095Z,19.58
2019-04-30T11:10:35.220Z,19.86
2019-04-30T11:11:35.147Z,20.15
2019-04-30T11:12:35.136Z,20.46
2019-04-30T11:13:35.152Z,20.50
2019-04-30T11:14:35.165Z,20.66
2019-04-30T11:15:35.179Z,20.65
2019-04-30T11:16:35.220Z,19.83
2019-04-30T11:17:35.343Z,19.29
2019-04-30T11:18:35.374Z,18.27
2019-04-30T11:19:35.366Z,18.49
2019-04-30T11:20:35.312Z,19.24
2019-04-30T11:21:35.483Z,19.83
2019-04-30T11:22:35.443Z,19.60
2019-04-30T11:23:35.391Z,19.61
2019-04-30T11:24:37.997Z,19.84
2019-04-30T11:25:35.708Z,19.94
2019-04-30T11:26:35.735Z,20.06
2019-04-30T11:27:35.924Z,20.09
2019-04-30T11:28:35.517Z,19.98
2019-04-30T11:29:35.467Z,19.83
2019-04-30T11:30:35.682Z,19.31
2019-04-30T11:31:35.656Z,19.63
2019-04-30T11:32:35.640Z,19.91
2019-04-30T11:33:35.556Z,20.02
2019-04-30T11:34:35.449Z,19.91
2019-04-30T11:35:35.465Z,19.95
2019-04-30T11:36:35.506Z,20.39
2019-04-30T11:37:35.521Z,19.80
2019-04-30T11:38:35.509Z,19.91
2019-04-30T11:39:36.474Z,19.69
2019-04-30T11:40:37.959Z,19.76
2019-04-30T11:41:35.574Z,19.61
2019-04-30T11:42:35.602Z,19.78
2019-04-30T11:43:35.583Z,19.72
2019-04-30T11:44:35.604Z,19.70
2019-04-30T11:45:35.610Z,19.35
2019-04-30T11:46:35.654Z,19.38
2019-04-30T11:47:35.671Z,18.12
2019-04-30T11:48:35.655Z,18.74
2019-04-30T11:49:35.665Z,19.51
2019-04-30T11:50:36.474Z,19.94
2019-04-30T11:51:35.723Z,20.54
2019-04-30T11:52:35.740Z,20.56
2019-04-30T11:53:35.737Z,20.21
2019-04-30T11:54:35.736Z,19.43
2019-04-30T11:55:35.757Z,19.42
2019-04-30T11:56:38.297Z,19.60
2019-04-30T11:57:35.811Z,18.98
2019-04-30T11:58:35.803Z,18.31
2019-04-30T11:59:35.816Z,18.92
2019-04-30T12:00:35.826Z,19.01
2019-04-30T12:01:35.864Z,18.92
2019-04-30T12:02:35.879Z,19.06
2019-04-30T12:03:35.939Z,19.06
2019-04-30T12:04:35.876Z,19.11
2019-04-30T12:05:35.892Z,19.32
2019-04-30T12:06:35.937Z,19.57
2019-04-30T12:07:35.929Z,19.79
2019-04-30T12:08:35.936Z,19.90
2019-04-30T12:09:35.959Z,19.70
2019-04-30T12:10:36.494Z,19.50
2019-04-30T12:11:36.004Z,18.59
2019-04-30T12:12:35.996Z,18.47
2019-04-30T12:13:36.004Z,17.59
2019-04-30T12:14:36.023Z,17.33
2019-04-30T12:15:36.033Z,17.04
2019-04-30T12:16:36.074Z,17.54
2019-04-30T12:17:36.057Z,17.69
2019-04-30T12:18:36.073Z,17.81
2019-04-30T12:19:36.091Z,17.87
2019-04-30T12:20:36.103Z,17.63
2019-04-30T12:21:36.141Z,17.95
2019-04-30T12:22:36.160Z,18.39
2019-04-30T12:23:36.145Z,18.22
2019-04-30T12:24:36.151Z,18.40
2019-04-30T12:25:36.165Z,18.42
2019-04-30T12:26:36.234Z,17.23
2019-04-30T12:27:38.671Z,17.59
2019-04-30T12:28:36.244Z,17.59
2019-04-30T12:29:36.220Z,18.28
2019-04-30T12:30:39.048Z,19.14
2019-04-30T12:31:36.274Z,18.98
2019-04-30T12:32:36.282Z,19.24
2019-04-30T12:33:36.270Z,19.51
2019-04-30T12:34:36.283Z,19.70
2019-04-30T12:35:36.298Z,19.86
2019-04-30T12:36:36.335Z,20.00
2019-04-30T12:37:39.099Z,20.03
2019-04-30T12:38:36.338Z,19.73
2019-04-30T12:39:36.350Z,19.20
2019-04-30T12:40:36.358Z,19.01
2019-04-30T12:41:36.402Z,18.74
2019-04-30T12:42:36.419Z,18.54
2019-04-30T12:43:36.402Z,18.94
2019-04-30T12:44:39.902Z,19.17
2019-04-30T12:45:36.431Z,19.33
2019-04-30T12:46:38.628Z,19.40
2019-04-30T12:47:36.485Z,19.48
2019-04-30T12:48:36.471Z,19.25
2019-04-30T12:49:37.007Z,19.13
2019-04-30T12:50:36.497Z,18.68
2019-04-30T12:51:45.673Z,18.49
2019-04-30T12:52:36.547Z,18.49
2019-04-30T12:53:37.627Z,18.72
2019-04-30T12:54:36.544Z,18.99
2019-04-30T12:55:36.560Z,19.39
2019-04-30T12:56:36.595Z,19.72
2019-04-30T12:57:36.579Z,19.95
2019-04-30T12:58:36.603Z,19.94
2019-04-30T12:59:36.607Z,19.60
2019-04-30T13:00:36.624Z,19.32
2019-04-30T13:01:36.664Z,19.36
2019-04-30T13:02:36.651Z,18.54